sensor_id;sensor_type;location;lat;lon;timestamp;temperature;humidity
64951;DHT22;51482;47.014;7.652;2023-07-31T00:01:48;14.80;99.90
64951;DHT22;51482;47.014;7.652;2023-07-31T00:04:13;14.80;99.90
64951;DHT22;51482;47.014;7.652;2023-07-31T00:06:39;15.20;99.90
64951;DHT22;51482;47.014;7.652;2023-07-31T00:09:04;14.80;99.90
64951;DHT22;51482;47.014;7.652;2023-07-31T00:11:30;14.80;99.90
64951;DHT22;51482;47.014;7.652;2023-07-31T00:13:55;14.70;99.90
64951;DHT22;51482;47.014;7.652;2023-07-31T00:16:21;14.70;99.90
64951;DHT22;51482;47.014;7.652;2023-07-31T00:18:46;14.60;99.90
64951;DHT22;51482;47.014;7.652;2023-07-31T00:21:12;14.90;99.90
64951;DHT22;51482;47.014;7.652;2023-07-31T00:23:37;14.50;99.90
64951;DHT22;51482;47.014;7.652;2023-07-31T00:26:03;14.50;99.90
64951;DHT22;51482;47.014;7.652;2023-07-31T00:28:28;14.30;99.90
64951;DHT22;51482;47.014;7.652;2023-07-31T00:30:54;14.40;99.90
64951;DHT22;51482;47.014;7.652;2023-07-31T00:33:20;14.80;99.90
64951;DHT22;51482;47.014;7.652;2023-07-31T00:35:45;14.50;99.90
64951;DHT22;51482;47.014;7.652;2023-07-31T00:38:11;14.40;99.90
64951;DHT22;51482;47.014;7.652;2023-07-31T00:40:37;14.30;99.90
64951;DHT22;51482;47.014;7.652;2023-07-31T00:43:03;14.90;99.90
64951;DHT22;51482;47.014;7.652;2023-07-31T00:45:29;14.40;99.90
64951;DHT22;51482;47.014;7.652;2023-07-31T00:47:56;14.40;99.90
64951;DHT22;51482;47.014;7.652;2023-07-31T00:50:24;14.40;99.90
64951;DHT22;51482;47.014;7.652;2023-07-31T00:52:49;15.10;99.90
64951;DHT22;51482;47.014;7.652;2023-07-31T00:55:15;14.20;99.90
64951;DHT22;51482;47.014;7.652;2023-07-31T00:57:41;14.20;99.90
64951;DHT22;51482;47.014;7.652;2023-07-31T01:00:07;14.10;99.90
64951;DHT22;51482;47.014;7.652;2023-07-31T01:02:33;14.10;99.90
64951;DHT22;51482;47.014;7.652;2023-07-31T01:05:00;14.00;99.90
64951;DHT22;51482;47.014;7.652;2023-07-31T01:07:40;14.30;99.90
64951;DHT22;51482;47.014;7.652;2023-07-31T01:10:20;14.00;99.90
64951;DHT22;51482;47.014;7.652;2023-07-31T01:12:47;14.00;99.90
64951;DHT22;51482;47.014;7.652;2023-07-31T01:15:13;13.90;99.90
64951;DHT22;51482;47.014;7.652;2023-07-31T01:17:41;13.70;99.90
64951;DHT22;51482;47.014;7.652;2023-07-31T01:20:12;14.30;99.90
64951;DHT22;51482;47.014;7.652;2023-07-31T01:22:54;13.80;99.90
64951;DHT22;51482;47.014;7.652;2023-07-31T01:31:00;13.80;99.90
64951;DHT22;51482;47.014;7.652;2023-07-31T01:33:28;13.70;99.90
64951;DHT22;51482;47.014;7.652;2023-07-31T01:35:54;13.80;99.90
64951;DHT22;51482;47.014;7.652;2023-07-31T01:38:21;13.70;99.90
64951;DHT22;51482;47.014;7.652;2023-07-31T01:40:51;13.70;99.90
64951;DHT22;51482;47.014;7.652;2023-07-31T01:43:18;13.70;99.90
64951;DHT22;51482;47.014;7.652;2023-07-31T01:45:43;13.60;99.90
64951;DHT22;51482;47.014;7.652;2023-07-31T01:48:09;13.60;99.90
64951;DHT22;51482;47.014;7.652;2023-07-31T01:50:34;13.40;99.90
64951;DHT22;51482;47.014;7.652;2023-07-31T01:53:00;13.70;99.90
64951;DHT22;51482;47.014;7.652;2023-07-31T01:55:25;13.40;99.90
64951;DHT22;51482;47.014;7.652;2023-07-31T01:57:51;13.80;99.90
64951;DHT22;51482;47.014;7.652;2023-07-31T02:00:17;13.40;99.90
64951;DHT22;51482;47.014;7.652;2023-07-31T02:02:43;13.40;99.90
64951;DHT22;51482;47.014;7.652;2023-07-31T02:05:09;13.60;99.90
64951;DHT22;51482;47.014;7.652;2023-07-31T02:07:34;13.40;99.90
64951;DHT22;51482;47.014;7.652;2023-07-31T02:10:00;13.40;99.90
64951;DHT22;51482;47.014;7.652;2023-07-31T02:12:25;13.30;99.90
64951;DHT22;51482;47.014;7.652;2023-07-31T02:14:51;13.30;99.90
64951;DHT22;51482;47.014;7.652;2023-07-31T02:17:16;13.30;99.90
64951;DHT22;51482;47.014;7.652;2023-07-31T02:19:42;13.30;99.90
64951;DHT22;51482;47.014;7.652;2023-07-31T02:22:07;14.20;99.90
64951;DHT22;51482;47.014;7.652;2023-07-31T02:24:33;14.00;99.90
64951;DHT22;51482;47.014;7.652;2023-07-31T02:26:58;13.30;99.90
64951;DHT22;51482;47.014;7.652;2023-07-31T02:29:24;13.30;99.90
64951;DHT22;51482;47.014;7.652;2023-07-31T02:31:49;13.70;99.90
64951;DHT22;51482;47.014;7.652;2023-07-31T02:34:15;13.80;99.90
64951;DHT22;51482;47.014;7.652;2023-07-31T02:36:41;13.90;99.90
64951;DHT22;51482;47.014;7.652;2023-07-31T02:39:06;13.30;99.90
64951;DHT22;51482;47.014;7.652;2023-07-31T02:41:32;13.70;99.90
64951;DHT22;51482;47.014;7.652;2023-07-31T02:43:57;13.80;99.90
64951;DHT22;51482;47.014;7.652;2023-07-31T02:46:23;13.10;99.90
64951;DHT22;51482;47.014;7.652;2023-07-31T02:48:50;13.10;99.90
64951;DHT22;51482;47.014;7.652;2023-07-31T02:51:16;13.10;99.90
64951;DHT22;51482;47.014;7.652;2023-07-31T02:53:42;13.00;99.90
64951;DHT22;51482;47.014;7.652;2023-07-31T02:56:07;13.00;99.90
64951;DHT22;51482;47.014;7.652;2023-07-31T02:58:33;13.10;99.90
64951;DHT22;51482;47.014;7.652;2023-07-31T03:00:59;13.90;99.90
64951;DHT22;51482;47.014;7.652;2023-07-31T03:03:24;13.00;99.90
64951;DHT22;51482;47.014;7.652;2023-07-31T03:05:50;13.00;99.90
64951;DHT22;51482;47.014;7.652;2023-07-31T03:08:15;13.10;99.90
64951;DHT22;51482;47.014;7.652;2023-07-31T03:10:41;13.10;99.90
64951;DHT22;51482;47.014;7.652;2023-07-31T03:13:06;13.00;99.90
64951;DHT22;51482;47.014;7.652;2023-07-31T03:15:32;13.00;99.90
64951;DHT22;51482;47.014;7.652;2023-07-31T03:17:58;13.50;99.90
64951;DHT22;51482;47.014;7.652;2023-07-31T03:20:23;13.30;99.90
64951;DHT22;51482;47.014;7.652;2023-07-31T03:22:49;13.00;99.90
64951;DHT22;51482;47.014;7.652;2023-07-31T03:25:14;13.00;99.90
64951;DHT22;51482;47.014;7.652;2023-07-31T03:27:40;13.00;99.90
64951;DHT22;51482;47.014;7.652;2023-07-31T03:30:06;12.90;99.90
64951;DHT22;51482;47.014;7.652;2023-07-31T03:32:32;13.00;99.90
64951;DHT22;51482;47.014;7.652;2023-07-31T03:34:58;13.00;99.90
64951;DHT22;51482;47.014;7.652;2023-07-31T03:37:23;13.40;99.90
64951;DHT22;51482;47.014;7.652;2023-07-31T03:39:49;12.90;99.90
64951;DHT22;51482;47.014;7.652;2023-07-31T03:42:14;13.00;99.90
64951;DHT22;51482;47.014;7.652;2023-07-31T03:44:40;12.90;99.90
64951;DHT22;51482;47.014;7.652;2023-07-31T03:47:06;12.80;99.90
64951;DHT22;51482;47.014;7.652;2023-07-31T03:49:31;12.70;99.90
64951;DHT22;51482;47.014;7.652;2023-07-31T03:51:57;12.70;99.90
64951;DHT22;51482;47.014;7.652;2023-07-31T03:54:22;12.70;99.90
64951;DHT22;51482;47.014;7.652;2023-07-31T03:56:49;12.70;99.90
64951;DHT22;51482;47.014;7.652;2023-07-31T03:59:14;13.20;99.90
64951;DHT22;51482;47.014;7.652;2023-07-31T04:01:40;13.20;99.90
64951;DHT22;51482;47.014;7.652;2023-07-31T04:04:06;12.70;99.90
64951;DHT22;51482;47.014;7.652;2023-07-31T04:06:31;12.70;99.90
64951;DHT22;51482;47.014;7.652;2023-07-31T04:08:57;12.80;99.90
64951;DHT22;51482;47.014;7.652;2023-07-31T04:11:22;12.70;99.90
64951;DHT22;51482;47.014;7.652;2023-07-31T04:13:48;12.70;99.90
64951;DHT22;51482;47.014;7.652;2023-07-31T04:16:13;13.00;99.90
64951;DHT22;51482;47.014;7.652;2023-07-31T04:18:39;12.70;99.90
64951;DHT22;51482;47.014;7.652;2023-07-31T04:21:04;13.10;99.90
64951;DHT22;51482;47.014;7.652;2023-07-31T04:23:30;12.70;99.90
64951;DHT22;51482;47.014;7.652;2023-07-31T04:25:55;12.60;99.90
64951;DHT22;51482;47.014;7.652;2023-07-31T04:28:21;12.70;99.90
64951;DHT22;51482;47.014;7.652;2023-07-31T04:30:47;12.60;99.90
64951;DHT22;51482;47.014;7.652;2023-07-31T04:33:13;13.30;99.90
64951;DHT22;51482;47.014;7.652;2023-07-31T04:35:38;13.40;99.90
64951;DHT22;51482;47.014;7.652;2023-07-31T04:38:04;13.80;99.90
64951;DHT22;51482;47.014;7.652;2023-07-31T04:40:29;14.70;99.90
64951;DHT22;51482;47.014;7.652;2023-07-31T04:42:55;14.00;99.90
64951;DHT22;51482;47.014;7.652;2023-07-31T04:45:21;14.60;99.90
64951;DHT22;51482;47.014;7.652;2023-07-31T04:47:46;14.40;99.90
64951;DHT22;51482;47.014;7.652;2023-07-31T04:50:12;14.80;99.90
64951;DHT22;51482;47.014;7.652;2023-07-31T04:52:37;14.40;99.90
64951;DHT22;51482;47.014;7.652;2023-07-31T04:55:03;14.70;99.90
64951;DHT22;51482;47.014;7.652;2023-07-31T04:57:28;14.10;99.90
64951;DHT22;51482;47.014;7.652;2023-07-31T04:59:54;14.10;99.90
64951;DHT22;51482;47.014;7.652;2023-07-31T05:02:19;14.90;99.90
64951;DHT22;51482;47.014;7.652;2023-07-31T05:04:45;14.40;99.90
64951;DHT22;51482;47.014;7.652;2023-07-31T05:07:11;14.20;99.90
64951;DHT22;51482;47.014;7.652;2023-07-31T05:09:36;14.30;99.90
64951;DHT22;51482;47.014;7.652;2023-07-31T05:12:04;14.50;99.90
64951;DHT22;51482;47.014;7.652;2023-07-31T05:14:29;14.80;99.90
64951;DHT22;51482;47.014;7.652;2023-07-31T05:16:55;14.60;99.90
64951;DHT22;51482;47.014;7.652;2023-07-31T05:19:20;15.00;99.90
64951;DHT22;51482;47.014;7.652;2023-07-31T05:21:46;14.50;99.90
64951;DHT22;51482;47.014;7.652;2023-07-31T05:24:11;14.40;99.90
64951;DHT22;51482;47.014;7.652;2023-07-31T05:26:37;14.70;99.90
64951;DHT22;51482;47.014;7.652;2023-07-31T05:29:03;14.70;99.90
64951;DHT22;51482;47.014;7.652;2023-07-31T05:31:29;14.40;99.90
64951;DHT22;51482;47.014;7.652;2023-07-31T05:33:54;14.90;99.90
64951;DHT22;51482;47.014;7.652;2023-07-31T05:36:20;14.90;99.90
64951;DHT22;51482;47.014;7.652;2023-07-31T05:38:46;14.50;99.90
64951;DHT22;51482;47.014;7.652;2023-07-31T05:41:12;14.80;99.90
64951;DHT22;51482;47.014;7.652;2023-07-31T05:43:38;15.40;99.90
64951;DHT22;51482;47.014;7.652;2023-07-31T05:46:03;15.10;99.90
64951;DHT22;51482;47.014;7.652;2023-07-31T05:48:29;15.10;99.90
64951;DHT22;51482;47.014;7.652;2023-07-31T05:50:55;15.00;99.90
64951;DHT22;51482;47.014;7.652;2023-07-31T05:53:20;15.90;99.90
64951;DHT22;51482;47.014;7.652;2023-07-31T05:55:46;15.40;99.90
64951;DHT22;51482;47.014;7.652;2023-07-31T05:58:11;15.40;99.90
64951;DHT22;51482;47.014;7.652;2023-07-31T06:00:37;15.20;99.90
64951;DHT22;51482;47.014;7.652;2023-07-31T06:03:02;15.40;99.90
64951;DHT22;51482;47.014;7.652;2023-07-31T06:05:28;15.30;99.90
64951;DHT22;51482;47.014;7.652;2023-07-31T06:07:57;15.20;99.90
64951;DHT22;51482;47.014;7.652;2023-07-31T06:10:22;15.70;99.90
64951;DHT22;51482;47.014;7.652;2023-07-31T06:12:48;15.80;99.90
64951;DHT22;51482;47.014;7.652;2023-07-31T06:15:13;15.70;99.90
64951;DHT22;51482;47.014;7.652;2023-07-31T06:17:39;15.80;99.90
64951;DHT22;51482;47.014;7.652;2023-07-31T06:20:06;15.90;99.90
64951;DHT22;51482;47.014;7.652;2023-07-31T06:22:32;16.00;99.90
64951;DHT22;51482;47.014;7.652;2023-07-31T06:24:58;16.40;99.90
64951;DHT22;51482;47.014;7.652;2023-07-31T06:27:24;16.30;99.90
64951;DHT22;51482;47.014;7.652;2023-07-31T06:29:49;15.70;99.90
64951;DHT22;51482;47.014;7.652;2023-07-31T06:32:15;16.20;99.90
64951;DHT22;51482;47.014;7.652;2023-07-31T06:34:40;16.30;99.90
64951;DHT22;51482;47.014;7.652;2023-07-31T06:37:06;16.40;99.90
64951;DHT22;51482;47.014;7.652;2023-07-31T06:39:32;16.90;99.90
64951;DHT22;51482;47.014;7.652;2023-07-31T06:41:57;16.80;99.90
64951;DHT22;51482;47.014;7.652;2023-07-31T06:44:23;17.00;99.90
64951;DHT22;51482;47.014;7.652;2023-07-31T06:46:48;17.60;99.90
64951;DHT22;51482;47.014;7.652;2023-07-31T06:49:14;17.60;99.90
64951;DHT22;51482;47.014;7.652;2023-07-31T06:51:42;17.20;99.90
64951;DHT22;51482;47.014;7.652;2023-07-31T06:54:09;17.50;99.90
64951;DHT22;51482;47.014;7.652;2023-07-31T06:56:35;17.50;99.90
64951;DHT22;51482;47.014;7.652;2023-07-31T06:59:00;17.70;99.90
64951;DHT22;51482;47.014;7.652;2023-07-31T07:01:26;17.20;99.90
64951;DHT22;51482;47.014;7.652;2023-07-31T07:03:53;17.30;99.90
64951;DHT22;51482;47.014;7.652;2023-07-31T07:06:18;17.30;99.90
64951;DHT22;51482;47.014;7.652;2023-07-31T07:08:44;17.40;99.90
64951;DHT22;51482;47.014;7.652;2023-07-31T07:11:10;17.40;99.90
64951;DHT22;51482;47.014;7.652;2023-07-31T07:13:35;17.60;99.90
64951;DHT22;51482;47.014;7.652;2023-07-31T07:16:01;17.80;99.90
64951;DHT22;51482;47.014;7.652;2023-07-31T07:18:27;17.90;99.90
64951;DHT22;51482;47.014;7.652;2023-07-31T07:20:53;18.20;99.90
64951;DHT22;51482;47.014;7.652;2023-07-31T07:23:19;18.70;99.90
64951;DHT22;51482;47.014;7.652;2023-07-31T07:25:47;18.40;99.90
64951;DHT22;51482;47.014;7.652;2023-07-31T07:28:13;19.20;99.90
64951;DHT22;51482;47.014;7.652;2023-07-31T07:30:39;19.40;99.90
64951;DHT22;51482;47.014;7.652;2023-07-31T07:33:05;19.30;99.90
64951;DHT22;51482;47.014;7.652;2023-07-31T07:35:33;19.00;99.90
64951;DHT22;51482;47.014;7.652;2023-07-31T07:37:59;19.10;99.90
64951;DHT22;51482;47.014;7.652;2023-07-31T07:40:24;19.70;99.90
64951;DHT22;51482;47.014;7.652;2023-07-31T07:42:50;19.30;99.90
64951;DHT22;51482;47.014;7.652;2023-07-31T07:45:15;19.50;99.90
64951;DHT22;51482;47.014;7.652;2023-07-31T07:47:41;19.50;99.90
64951;DHT22;51482;47.014;7.652;2023-07-31T07:50:08;19.50;99.90
64951;DHT22;51482;47.014;7.652;2023-07-31T07:52:33;19.70;99.90
64951;DHT22;51482;47.014;7.652;2023-07-31T07:54:59;20.00;99.90
64951;DHT22;51482;47.014;7.652;2023-07-31T07:57:25;20.30;99.90
64951;DHT22;51482;47.014;7.652;2023-07-31T07:59:51;20.60;99.90
64951;DHT22;51482;47.014;7.652;2023-07-31T08:02:16;20.70;99.90
64951;DHT22;51482;47.014;7.652;2023-07-31T08:04:42;20.90;99.90
64951;DHT22;51482;47.014;7.652;2023-07-31T08:07:07;21.10;99.90
64951;DHT22;51482;47.014;7.652;2023-07-31T08:09:35;21.00;99.90
64951;DHT22;51482;47.014;7.652;2023-07-31T08:12:01;21.10;99.90
64951;DHT22;51482;47.014;7.652;2023-07-31T08:14:28;21.20;99.90
64951;DHT22;51482;47.014;7.652;2023-07-31T08:16:54;21.80;99.90
64951;DHT22;51482;47.014;7.652;2023-07-31T08:19:19;21.30;99.90
64951;DHT22;51482;47.014;7.652;2023-07-31T08:21:45;21.20;99.90
64951;DHT22;51482;47.014;7.652;2023-07-31T08:24:11;21.50;99.90
64951;DHT22;51482;47.014;7.652;2023-07-31T08:26:36;21.70;99.90
64951;DHT22;51482;47.014;7.652;2023-07-31T08:29:02;21.90;99.90
64951;DHT22;51482;47.014;7.652;2023-07-31T08:31:27;22.20;99.90
64951;DHT22;51482;47.014;7.652;2023-07-31T08:33:54;23.00;99.90
64951;DHT22;51482;47.014;7.652;2023-07-31T08:36:20;22.80;99.90
64951;DHT22;51482;47.014;7.652;2023-07-31T08:38:46;23.00;99.90
64951;DHT22;51482;47.014;7.652;2023-07-31T08:41:11;22.70;99.90
64951;DHT22;51482;47.014;7.652;2023-07-31T08:43:39;22.90;99.90
64951;DHT22;51482;47.014;7.652;2023-07-31T08:46:05;22.70;99.90
64951;DHT22;51482;47.014;7.652;2023-07-31T08:48:31;23.20;99.90
64951;DHT22;51482;47.014;7.652;2023-07-31T08:50:57;22.90;99.90
64951;DHT22;51482;47.014;7.652;2023-07-31T08:53:23;22.80;99.90
64951;DHT22;51482;47.014;7.652;2023-07-31T08:55:49;22.80;99.90
64951;DHT22;51482;47.014;7.652;2023-07-31T08:58:15;23.00;99.90
64951;DHT22;51482;47.014;7.652;2023-07-31T09:00:41;22.80;99.90
64951;DHT22;51482;47.014;7.652;2023-07-31T09:03:15;22.90;99.90
64951;DHT22;51482;47.014;7.652;2023-07-31T09:05:46;22.70;99.90
64951;DHT22;51482;47.014;7.652;2023-07-31T09:08:18;22.50;99.90
64951;DHT22;51482;47.014;7.652;2023-07-31T09:10:46;22.50;99.90
64951;DHT22;51482;47.014;7.652;2023-07-31T09:13:13;22.30;99.90
64951;DHT22;51482;47.014;7.652;2023-07-31T09:15:40;22.50;99.90
64951;DHT22;51482;47.014;7.652;2023-07-31T09:18:06;23.00;99.90
64951;DHT22;51482;47.014;7.652;2023-07-31T09:20:33;22.40;99.90
64951;DHT22;51482;47.014;7.652;2023-07-31T09:23:10;23.40;99.90
64951;DHT22;51482;47.014;7.652;2023-07-31T09:25:37;23.30;99.90
64951;DHT22;51482;47.014;7.652;2023-07-31T09:28:06;23.50;99.90
64951;DHT22;51482;47.014;7.652;2023-07-31T09:30:45;24.10;99.90
64951;DHT22;51482;47.014;7.652;2023-07-31T09:33:11;24.70;99.90
64951;DHT22;51482;47.014;7.652;2023-07-31T09:35:37;24.20;99.90
64951;DHT22;51482;47.014;7.652;2023-07-31T09:38:11;24.30;99.90
64951;DHT22;51482;47.014;7.652;2023-07-31T09:40:39;24.60;99.90
64951;DHT22;51482;47.014;7.652;2023-07-31T09:43:06;25.40;99.90
64951;DHT22;51482;47.014;7.652;2023-07-31T09:45:37;25.00;99.90
64951;DHT22;51482;47.014;7.652;2023-07-31T09:48:03;25.20;99.90
64951;DHT22;51482;47.014;7.652;2023-07-31T09:50:29;25.80;99.90
64951;DHT22;51482;47.014;7.652;2023-07-31T09:52:56;26.00;98.50
64951;DHT22;51482;47.014;7.652;2023-07-31T09:55:21;26.60;97.80
64951;DHT22;51482;47.014;7.652;2023-07-31T09:57:48;26.50;97.70
64951;DHT22;51482;47.014;7.652;2023-07-31T10:00:18;26.80;95.40
64951;DHT22;51482;47.014;7.652;2023-07-31T10:02:48;27.20;96.70
64951;DHT22;51482;47.014;7.652;2023-07-31T10:05:14;27.50;95.50
64951;DHT22;51482;47.014;7.652;2023-07-31T10:07:43;27.80;94.90
64951;DHT22;51482;47.014;7.652;2023-07-31T10:10:11;27.90;93.30
64951;DHT22;51482;47.014;7.652;2023-07-31T10:12:38;28.10;92.70
64951;DHT22;51482;47.014;7.652;2023-07-31T10:15:04;28.10;91.30
64951;DHT22;51482;47.014;7.652;2023-07-31T10:17:31;28.30;91.40
64951;DHT22;51482;47.014;7.652;2023-07-31T10:19:58;28.40;88.70
64951;DHT22;51482;47.014;7.652;2023-07-31T10:22:25;28.70;86.30
64951;DHT22;51482;47.014;7.652;2023-07-31T10:24:52;28.60;84.60
64951;DHT22;51482;47.014;7.652;2023-07-31T10:27:20;28.90;84.70
64951;DHT22;51482;47.014;7.652;2023-07-31T10:29:45;28.60;81.40
64951;DHT22;51482;47.014;7.652;2023-07-31T10:32:13;29.30;83.80
64951;DHT22;51482;47.014;7.652;2023-07-31T10:34:40;29.10;80.50
64951;DHT22;51482;47.014;7.652;2023-07-31T10:37:26;29.10;78.00
64951;DHT22;51482;47.014;7.652;2023-07-31T10:40:07;29.30;78.80
64951;DHT22;51482;47.014;7.652;2023-07-31T10:42:44;29.30;78.10
64951;DHT22;51482;47.014;7.652;2023-07-31T10:45:10;29.30;76.70
64951;DHT22;51482;47.014;7.652;2023-07-31T10:47:45;28.70;75.50
64951;DHT22;51482;47.014;7.652;2023-07-31T10:50:22;29.10;79.10
64951;DHT22;51482;47.014;7.652;2023-07-31T10:52:50;29.40;76.20
64951;DHT22;51482;47.014;7.652;2023-07-31T10:55:31;29.60;79.30
64951;DHT22;51482;47.014;7.652;2023-07-31T10:58:11;29.90;77.60
64951;DHT22;51482;47.014;7.652;2023-07-31T11:00:42;29.90;74.70
64951;DHT22;51482;47.014;7.652;2023-07-31T11:03:17;30.60;74.60
64951;DHT22;51482;47.014;7.652;2023-07-31T11:05:48;30.30;72.00
64951;DHT22;51482;47.014;7.652;2023-07-31T11:08:21;30.30;72.80
64951;DHT22;51482;47.014;7.652;2023-07-31T11:10:49;30.20;68.10
64951;DHT22;51482;47.014;7.652;2023-07-31T11:13:15;30.00;68.00
64951;DHT22;51482;47.014;7.652;2023-07-31T11:15:40;30.10;71.90
64951;DHT22;51482;47.014;7.652;2023-07-31T11:18:06;30.20;65.40
64951;DHT22;51482;47.014;7.652;2023-07-31T11:20:34;30.40;65.00
64951;DHT22;51482;47.014;7.652;2023-07-31T11:23:06;30.20;63.60
64951;DHT22;51482;47.014;7.652;2023-07-31T11:25:32;30.50;64.50
64951;DHT22;51482;47.014;7.652;2023-07-31T11:28:06;30.20;62.40
64951;DHT22;51482;47.014;7.652;2023-07-31T11:30:32;30.60;62.40
64951;DHT22;51482;47.014;7.652;2023-07-31T11:32:58;30.90;59.90
64951;DHT22;51482;47.014;7.652;2023-07-31T11:35:24;30.90;59.00
64951;DHT22;51482;47.014;7.652;2023-07-31T11:37:50;30.70;58.70
64951;DHT22;51482;47.014;7.652;2023-07-31T11:40:16;30.80;62.00
64951;DHT22;51482;47.014;7.652;2023-07-31T11:42:41;31.10;62.70
64951;DHT22;51482;47.014;7.652;2023-07-31T11:45:08;31.10;59.80
64951;DHT22;51482;47.014;7.652;2023-07-31T11:47:35;31.00;58.90
64951;DHT22;51482;47.014;7.652;2023-07-31T11:50:02;30.90;59.50
64951;DHT22;51482;47.014;7.652;2023-07-31T11:52:36;30.80;58.50
64951;DHT22;51482;47.014;7.652;2023-07-31T11:55:03;30.90;59.00
64951;DHT22;51482;47.014;7.652;2023-07-31T11:57:29;30.80;60.60
64951;DHT22;51482;47.014;7.652;2023-07-31T11:59:55;31.00;59.30
64951;DHT22;51482;47.014;7.652;2023-07-31T12:02:22;31.10;61.60
64951;DHT22;51482;47.014;7.652;2023-07-31T12:04:48;31.30;61.50
64951;DHT22;51482;47.014;7.652;2023-07-31T12:07:14;31.40;59.20
64951;DHT22;51482;47.014;7.652;2023-07-31T12:09:54;31.70;54.90
64951;DHT22;51482;47.014;7.652;2023-07-31T12:12:21;31.40;55.40
64951;DHT22;51482;47.014;7.652;2023-07-31T12:14:47;31.40;55.20
64951;DHT22;51482;47.014;7.652;2023-07-31T12:17:14;31.50;56.60
64951;DHT22;51482;47.014;7.652;2023-07-31T12:19:40;31.40;54.40
64951;DHT22;51482;47.014;7.652;2023-07-31T12:22:13;31.30;54.10
64951;DHT22;51482;47.014;7.652;2023-07-31T12:24:40;31.30;53.00
64951;DHT22;51482;47.014;7.652;2023-07-31T12:27:11;31.70;54.70
64951;DHT22;51482;47.014;7.652;2023-07-31T12:29:36;31.50;52.10
64951;DHT22;51482;47.014;7.652;2023-07-31T12:32:02;31.90;52.00
64951;DHT22;51482;47.014;7.652;2023-07-31T12:34:28;31.00;50.40
64951;DHT22;51482;47.014;7.652;2023-07-31T12:36:54;30.90;47.60
64951;DHT22;51482;47.014;7.652;2023-07-31T12:39:19;31.00;49.40
64951;DHT22;51482;47.014;7.652;2023-07-31T12:41:45;31.50;50.30
64951;DHT22;51482;47.014;7.652;2023-07-31T12:44:10;31.80;51.30
64951;DHT22;51482;47.014;7.652;2023-07-31T12:46:36;32.10;51.70
64951;DHT22;51482;47.014;7.652;2023-07-31T12:49:02;32.30;51.60
64951;DHT22;51482;47.014;7.652;2023-07-31T12:51:28;32.70;48.30
64951;DHT22;51482;47.014;7.652;2023-07-31T12:53:53;32.70;48.50
64951;DHT22;51482;47.014;7.652;2023-07-31T12:56:19;33.00;48.30
64951;DHT22;51482;47.014;7.652;2023-07-31T12:58:44;33.00;48.60
64951;DHT22;51482;47.014;7.652;2023-07-31T13:01:10;32.90;49.30
64951;DHT22;51482;47.014;7.652;2023-07-31T13:03:35;32.90;47.30
64951;DHT22;51482;47.014;7.652;2023-07-31T13:06:01;32.80;47.30
64951;DHT22;51482;47.014;7.652;2023-07-31T13:08:26;33.00;49.80
64951;DHT22;51482;47.014;7.652;2023-07-31T13:10:52;32.10;47.30
64951;DHT22;51482;47.014;7.652;2023-07-31T13:13:17;32.40;48.80
64951;DHT22;51482;47.014;7.652;2023-07-31T13:15:44;31.80;49.00
64951;DHT22;51482;47.014;7.652;2023-07-31T13:18:10;31.90;47.50
64951;DHT22;51482;47.014;7.652;2023-07-31T13:20:35;32.60;47.90
64951;DHT22;51482;47.014;7.652;2023-07-31T13:23:01;31.80;48.30
64951;DHT22;51482;47.014;7.652;2023-07-31T13:25:26;31.80;47.50
64951;DHT22;51482;47.014;7.652;2023-07-31T13:27:52;32.00;50.40
64951;DHT22;51482;47.014;7.652;2023-07-31T13:30:18;31.50;48.10
64951;DHT22;51482;47.014;7.652;2023-07-31T13:32:43;31.30;47.20
64951;DHT22;51482;47.014;7.652;2023-07-31T13:35:09;31.40;48.30
64951;DHT22;51482;47.014;7.652;2023-07-31T13:37:36;31.60;47.50
64951;DHT22;51482;47.014;7.652;2023-07-31T13:40:02;31.80;48.20
64951;DHT22;51482;47.014;7.652;2023-07-31T13:42:30;31.80;47.00
64951;DHT22;51482;47.014;7.652;2023-07-31T13:44:56;32.10;46.80
64951;DHT22;51482;47.014;7.652;2023-07-31T13:47:22;31.50;45.70
64951;DHT22;51482;47.014;7.652;2023-07-31T13:49:47;31.10;46.40
64951;DHT22;51482;47.014;7.652;2023-07-31T13:52:13;30.90;47.00
64951;DHT22;51482;47.014;7.652;2023-07-31T13:54:38;31.30;46.80
64951;DHT22;51482;47.014;7.652;2023-07-31T13:57:04;31.50;47.50
64951;DHT22;51482;47.014;7.652;2023-07-31T13:59:30;31.10;48.50
64951;DHT22;51482;47.014;7.652;2023-07-31T14:01:55;31.50;50.40
64951;DHT22;51482;47.014;7.652;2023-07-31T14:04:21;31.60;50.10
64951;DHT22;51482;47.014;7.652;2023-07-31T14:06:46;31.10;49.50
64951;DHT22;51482;47.014;7.652;2023-07-31T14:09:13;31.40;50.10
64951;DHT22;51482;47.014;7.652;2023-07-31T14:11:39;31.00;48.70
64951;DHT22;51482;47.014;7.652;2023-07-31T14:14:05;31.30;48.90
64951;DHT22;51482;47.014;7.652;2023-07-31T14:16:30;31.60;48.30
64951;DHT22;51482;47.014;7.652;2023-07-31T14:18:56;31.60;47.50
64951;DHT22;51482;47.014;7.652;2023-07-31T14:21:24;31.00;47.80
64951;DHT22;51482;47.014;7.652;2023-07-31T14:23:50;31.00;47.60
64951;DHT22;51482;47.014;7.652;2023-07-31T14:26:16;31.00;46.00
64951;DHT22;51482;47.014;7.652;2023-07-31T14:28:42;31.00;46.20
64951;DHT22;51482;47.014;7.652;2023-07-31T14:31:07;31.10;46.90
64951;DHT22;51482;47.014;7.652;2023-07-31T14:33:33;31.00;47.30
64951;DHT22;51482;47.014;7.652;2023-07-31T14:35:59;30.90;47.20
64951;DHT22;51482;47.014;7.652;2023-07-31T14:38:24;30.90;48.60
64951;DHT22;51482;47.014;7.652;2023-07-31T14:40:51;31.10;49.30
64951;DHT22;51482;47.014;7.652;2023-07-31T14:43:17;31.10;47.90
64951;DHT22;51482;47.014;7.652;2023-07-31T14:45:42;31.30;48.50
64951;DHT22;51482;47.014;7.652;2023-07-31T14:48:08;31.20;48.70
64951;DHT22;51482;47.014;7.652;2023-07-31T14:50:34;31.50;49.90
64951;DHT22;51482;47.014;7.652;2023-07-31T14:52:59;31.40;48.40
64951;DHT22;51482;47.014;7.652;2023-07-31T14:55:25;31.30;48.60
64951;DHT22;51482;47.014;7.652;2023-07-31T14:57:51;31.20;47.40
64951;DHT22;51482;47.014;7.652;2023-07-31T15:00:16;31.70;49.60
64951;DHT22;51482;47.014;7.652;2023-07-31T15:02:42;31.00;49.70
64951;DHT22;51482;47.014;7.652;2023-07-31T15:05:08;30.90;51.60
64951;DHT22;51482;47.014;7.652;2023-07-31T15:07:34;30.90;50.50
64951;DHT22;51482;47.014;7.652;2023-07-31T15:10:00;30.70;49.60
64951;DHT22;51482;47.014;7.652;2023-07-31T15:12:26;30.80;50.90
64951;DHT22;51482;47.014;7.652;2023-07-31T15:14:52;30.70;51.50
64951;DHT22;51482;47.014;7.652;2023-07-31T15:17:18;30.80;51.80
64951;DHT22;51482;47.014;7.652;2023-07-31T15:19:44;30.60;51.10
64951;DHT22;51482;47.014;7.652;2023-07-31T15:22:09;30.70;52.60
64951;DHT22;51482;47.014;7.652;2023-07-31T15:24:35;30.70;51.20
64951;DHT22;51482;47.014;7.652;2023-07-31T15:27:00;30.60;51.00
64951;DHT22;51482;47.014;7.652;2023-07-31T15:29:28;30.30;50.90
64951;DHT22;51482;47.014;7.652;2023-07-31T15:31:54;30.20;50.90